createdAt,value
2022-11-25T00:06:16.831Z,19.1373
2022-11-25T00:21:18.820Z,18.3932
2022-11-25T00:36:20.841Z,21.1882
2022-11-25T00:51:22.749Z,21.754
2022-11-25T01:06:24.630Z,21.7317
2022-11-25T01:21:26.553Z,22.4238
2022-11-25T01:36:28.465Z,22.807
2022-11-25T01:51:30.435Z,22.0926
2022-11-25T02:06:32.360Z,23.0577
2022-11-25T02:21:34.232Z,22.5117
2022-11-25T02:36:36.102Z,21.9459
2022-11-25T02:51:37.998Z,22.5767
2022-11-25T03:06:39.910Z,23.9287
2022-11-25T03:21:41.811Z,24.5465
2022-11-25T03:36:43.790Z,24.7062
2022-11-25T03:51:45.749Z,26.3504
2022-11-25T04:06:47.684Z,25.1321
2022-11-25T04:21:52.505Z,25.3203
2022-11-25T04:36:54.659Z,25.6001
2022-11-25T04:51:56.636Z,26.039
2022-11-25T05:06:58.548Z,27.248
2022-11-25T05:22:00.441Z,27.287
2022-11-25T05:37:02.566Z,27.3978
2022-11-25T05:52:04.620Z,26.7478
2022-11-25T06:07:06.544Z,27.9989
2022-11-25T06:22:08.476Z,28.0057
2022-11-25T06:37:10.354Z,27.9178
2022-11-25T06:52:12.267Z,27.7618
2022-11-25T07:07:14.234Z,26.6896
2022-11-25T07:22:16.180Z,26.8419
2022-11-25T07:37:18.150Z,26.4618
2022-11-25T07:52:20.163Z,27.144
2022-11-25T08:07:22.216Z,27.4306
2022-11-25T08:22:24.221Z,27.2226
2022-11-25T08:37:26.103Z,27.8986
2022-11-25T08:52:28.002Z,28.0936
2022-11-25T09:07:30.950Z,25.8929
2022-11-25T09:22:33.092Z,26.6246
2022-11-25T09:37:35.023Z,25.311
2022-11-25T09:52:36.963Z,24.6251
2022-11-25T10:07:38.914Z,23.6179
2022-11-25T10:22:40.851Z,23.3771
2022-11-25T10:37:42.770Z,23.1561
2022-11-25T10:52:44.684Z,24.8492
2022-11-25T11:07:46.655Z,23.53
2022-11-25T11:22:48.513Z,23.6662
2022-11-25T11:37:50.399Z,23.7275
2022-11-25T11:52:52.459Z,23.4093
2022-11-25T12:07:54.512Z,23.8606
2022-11-25T12:22:56.554Z,24.2122
2022-11-25T12:37:58.464Z,23.2471
2022-11-25T12:53:00.430Z,23.7213
2022-11-25T13:08:02.314Z,23.4644
2022-11-25T13:23:04.230Z,23.3734
2022-11-25T13:38:06.168Z,22.6324
2022-11-25T13:53:08.092Z,21.3807
2022-11-25T14:08:10.091Z,20.9387
2022-11-25T14:23:12.099Z,21.4816
2022-11-25T14:38:14.069Z,21.7738
2022-11-25T14:53:16.016Z,20.6168
2022-11-25T15:08:17.971Z,20.727
2022-11-25T15:23:19.973Z,19.3688
2022-11-25T15:38:21.917Z,19.1088
2022-11-25T15:53:26.539Z,19.3001
2022-11-25T16:08:30.803Z,19.3063
2022-11-25T16:23:32.759Z,19.674
2022-11-25T16:38:34.639Z,19.4431
2022-11-25T16:53:36.535Z,18.8129
2022-11-25T17:08:38.550Z,17.5321
2022-11-25T17:23:40.433Z,21.195
2022-11-25T17:38:42.417Z,21.6469
2022-11-25T17:53:44.329Z,21.6698
2022-11-25T18:08:46.274Z,21.5076
2022-11-25T18:23:48.160Z,23.0509
2022-11-25T18:38:50.083Z,23.0187
2022-11-25T18:53:52.017Z,22.6838
2022-11-25T19:08:53.905Z,22.3885
2022-11-25T19:23:55.787Z,22.7649
2022-11-25T19:38:57.786Z,22.2356
2022-11-25T19:53:59.689Z,21.3807
2022-11-25T20:09:07.546Z,20.9746
2022-11-25T20:24:09.896Z,23.0967
2022-11-25T20:39:11.795Z,22.2616
2022-11-25T20:54:13.728Z,22.0895
2022-11-25T21:09:15.620Z,21.9657
2022-11-25T21:24:17.511Z,23.0286
2022-11-25T21:39:19.500Z,22.8237
2022-11-25T21:54:21.465Z,23.6947
2022-11-25T22:09:23.429Z,23.5845
2022-11-25T22:24:25.364Z,24.0785
2022-11-25T22:39:27.262Z,25.1773
2022-11-25T22:54:29.175Z,26.0093
2022-11-25T23:09:31.123Z,26.4024
2022-11-25T23:24:33.048Z,25.5549
2022-11-25T23:39:35.007Z,25.2751
2022-11-25T23:54:37.165Z,26.403
